Metar z pełnej godziny Komunikat METAR ze strony awiacja.imgw.pl Metar G00 EPSY METAR EPSY 190200Z 18002KT 5000 MIFG NSC 11/10 Q1018=